Time;durP1;ratioP1;P1;durP2;ratioP2;P2;SDS_P1;SDS_P2;PMS_P1;PMS_P2;Temp;Humidity;BMP_temperature;BMP_pressure;BME280_temperature;BME280_humidity;BME280_pressure;Samples;Min_cycle;Max_cycle;Signal;HPM_P1;HPM_P2
2022/04/19 00:00:25;;;;;;;2.72;2.60;;;;;;;4.39;81.24;99814.10;1646940;85;21044;-70
2022/04/19 00:02:51;;;;;;;3.58;3.27;;;;;;;4.38;81.32;99815.08;1662360;85;21066;-69
2022/04/19 00:05:17;;;;;;;3.25;3.02;;;;;;;4.38;81.95;99814.26;1657585;84;21027;-69
2022/04/19 00:07:45;;;;;;;3.43;3.10;;;;;;;4.39;82.68;99811.47;1647867;84;21006;-69
2022/04/19 00:10:12;;;;;;;;;;;;;;;4.41;82.44;99815.27;1662508;84;21025;-69
2022/04/19 00:12:39;;;;;;;;;;;;;;;4.41;82.78;99808.16;1647394;86;20119;-69
2022/04/19 00:15:09;;;;;;;1.95;1.82;;;;;;;4.38;83.31;99811.12;1627515;86;20260;-70
2022/04/19 00:17:37;;;;;;;2.80;2.63;;;;;;;4.36;83.15;99810.95;1637101;86;21695;-68
2022/04/19 00:20:06;;;;;;;1.60;1.57;;;;;;;4.36;83.13;99805.68;1638266;86;22209;-68
2022/04/19 00:22:32;;;;;;;4.40;2.17;;;;;;;4.37;83.10;99802.04;1628937;86;21668;-69
2022/04/19 00:24:59;;;;;;;1.95;1.75;;;;;;;4.37;82.79;99794.97;1629247;86;21094;-68
2022/04/19 00:27:27;;;;;;;1.60;1.50;;;;;;;4.37;82.60;99796.29;1636663;86;21589;-69
2022/04/19 00:29:53;;;;;;;2.20;2.10;;;;;;;4.32;82.94;99793.30;1637421;86;21053;-69
2022/04/19 00:32:20;;;;;;;1.77;1.67;;;;;;;4.30;82.58;99795.28;1634408;86;21505;-70
2022/04/19 00:34:48;;;;;;;1.83;1.73;;;;;;;4.27;82.43;99791.12;1650908;85;21557;-69
2022/04/19 00:37:15;;;;;;;1.27;1.27;;;;;;;4.25;82.23;99787.83;1654194;85;21409;-67
2022/04/19 00:39:42;;;;;;;1.67;1.57;;;;;;;4.23;82.33;99791.12;1607823;87;21090;-69
2022/04/19 00:42:11;;;;;;;1.98;1.87;;;;;;;4.21;82.25;99797.05;1592589;88;21066;-69
2022/04/19 00:44:39;;;;;;;1.30;1.20;;;;;;;4.20;82.34;99806.44;1620253;87;21091;-68
2022/04/19 00:47:09;;;;;;;1.00;1.00;;;;;;;4.21;82.30;99807.61;1621347;86;21076;-70
2022/04/19 00:49:42;;;;;;;1.70;1.60;;;;;;;4.21;83.43;99796.23;1605399;87;21102;-69
2022/04/19 00:52:10;;;;;;;1.50;1.40;;;;;;;4.20;82.95;99798.53;1620272;86;21495;-69
2022/04/19 00:54:38;;;;;;;1.13;1.03;;;;;;;4.21;82.90;99797.55;1629415;86;21123;-70
2022/04/19 00:57:07;;;;;;;2.80;1.60;;;;;;;4.19;82.68;99795.07;1621105;86;21012;-69
2022/04/19 00:59:36;;;;;;;1.73;1.63;;;;;;;4.18;82.41;99789.95;1615390;87;21673;-67
2022/04/19 01:02:06;;;;;;;2.10;1.10;;;;;;;4.12;82.63;99792.73;1629077;86;21566;-68
2022/04/19 01:04:33;;;;;;;2.10;1.50;;;;;;;4.07;82.99;99795.87;1608408;87;21166;-67
2022/04/19 01:07:00;;;;;;;1.50;1.40;;;;;;;4.02;83.85;99798.14;1607248;87;21106;-68
2022/04/19 01:09:29;;;;;;;1.47;1.37;;;;;;;4.01;83.64;99799.61;1592036;89;21111;-68
2022/04/19 01:14:44;;;;;;;1.57;1.47;;;;;;;3.99;84.28;99797.13;1643096;84;21057;-69
2022/04/19 01:17:11;;;;;;;1.80;1.70;;;;;;;3.99;84.31;99791.04;1665175;84;21023;-67
2022/04/19 01:19:42;;;;;;;1.80;1.70;;;;;;;4.00;84.48;99793.52;1663190;84;21036;-67
2022/04/19 01:22:12;;;;;;;2.53;1.63;;;;;;;4.02;84.55;99790.73;1659215;84;21060;-69
2022/04/19 01:24:43;;;;;;;2.17;2.07;;;;;;;4.02;84.93;99788.91;1666510;84;21074;-69
2022/04/19 01:27:13;;;;;;;2.43;2.23;;;;;;;4.02;85.01;99785.46;1650744;84;21890;-67
2022/04/19 01:29:42;;;;;;;2.17;2.07;;;;;;;4.01;85.03;99780.69;1664164;84;21166;-69
2022/04/19 01:32:09;;;;;;;2.20;2.10;;;;;;;4.01;85.06;99775.41;1660071;84;21035;-70
2022/04/19 01:34:37;;;;;;;1.63;1.53;;;;;;;4.01;85.15;99778.05;1669880;84;20959;-70
2022/04/19 01:37:05;;;;;;;2.07;1.97;;;;;;;4.00;85.00;99786.11;1675547;84;21067;-69
2022/04/19 01:42:18;;;;;;;2.58;2.47;;;;;;;3.99;84.98;99781.31;1657310;85;21179;-68
2022/04/19 01:44:48;;;;;;;2.90;2.70;;;;;;;3.97;84.94;99779.33;1655609;84;21109;-69
2022/04/19 01:47:14;;;;;;;2.03;1.93;;;;;;;3.98;84.88;99776.22;1667207;84;21062;-68
2022/04/19 01:49:43;;;;;;;2.67;2.50;;;;;;;3.99;84.84;99774.72;1666171;85;21043;-69
2022/04/19 01:52:09;;;;;;;3.12;2.92;;;;;;;3.99;84.51;99781.81;1666178;84;21107;-68
2022/04/19 01:54:38;;;;;;;2.23;2.13;;;;;;;3.97;84.34;99777.19;1667237;84;21092;-68
2022/04/19 01:57:05;;;;;;;1.87;1.63;;;;;;;3.95;84.33;99773.89;1668393;84;21034;-69
2022/04/19 01:59:33;;;;;;;2.43;2.33;;;;;;;3.89;84.40;99769.58;1657114;84;22177;-69
2022/04/19 02:02:01;;;;;;;2.90;2.70;;;;;;;3.87;84.45;99768.91;1650212;84;21485;-68
2022/04/19 02:04:28;;;;;;;2.70;2.50;;;;;;;3.76;84.66;99751.24;1667330;84;21101;-69
2022/04/19 02:06:56;;;;;;;3.73;3.00;;;;;;;3.82;84.80;99762.47;1660437;84;21008;-68
2022/04/19 02:09:24;;;;;;;7.60;4.63;;;;;;;3.81;84.86;99756.38;1637394;86;21045;-69
2022/04/19 02:11:51;;;;;;;9.73;6.40;;;;;;;3.80;84.90;99756.03;1658093;84;21133;-69
2022/04/19 02:14:31;;;;;;;14.47;7.23;;;;;;;3.80;84.93;99757.34;1647166;84;21483;-70
2022/04/19 02:16:58;;;;;;;16.50;10.10;;;;;;;3.82;84.87;99755.88;1645681;86;21031;-68
2022/04/19 02:19:25;;;;;;;18.95;9.78;;;;;;;3.81;84.79;99756.38;1653826;84;21008;-68
2022/04/19 02:21:51;;;;;;;19.35;11.65;;;;;;;3.83;84.78;99757.54;1655263;84;21027;-69
2022/04/19 02:24:17;;;;;;;26.35;12.75;;;;;;;3.82;84.58;99759.33;1659520;84;21019;-69
2022/04/19 02:26:45;;;;;;;27.37;14.40;;;;;;;3.80;84.47;99757.84;1652090;84;22081;-68
2022/04/19 02:29:11;;;;;;;24.17;12.83;;;;;;;3.78;84.62;99758.50;1664141;84;21062;-68
2022/04/19 02:31:39;;;;;;;32.97;13.40;;;;;;;3.76;84.83;99758.65;1662047;84;21071;-69
2022/04/19 02:34:07;;;;;;;28.27;13.73;;;;;;;3.72;84.66;99749.91;1664527;84;21004;-68
2022/04/19 02:36:35;;;;;;;27.47;12.53;;;;;;;3.69;84.71;99742.66;1667746;84;21035;-67
2022/04/19 02:39:02;;;;;;;24.47;13.08;;;;;;;3.68;84.72;99742.31;1654624;84;21035;-69
2022/04/19 02:41:28;;;;;;;25.20;12.53;;;;;;;3.72;84.85;99740.69;1658252;84;21043;-69
2022/04/19 02:43:59;;;;;;;22.67;11.87;;;;;;;3.75;84.87;99739.03;1660840;84;21024;-68
2022/04/19 02:46:26;;;;;;;24.17;11.80;;;;;;;3.78;84.71;99743.50;1648200;84;21497;-68
2022/04/19 02:48:58;;;;;;;29.43;10.90;;;;;;;3.78;84.49;99745.31;1663465;86;21148;-69
2022/04/19 02:51:25;;;;;;;22.03;10.27;;;;;;;3.78;84.48;99749.27;1646213;84;21078;-69
2022/04/19 02:53:53;;;;;;;20.25;11.85;;;;;;;3.78;84.55;99748.77;1655101;84;21059;-69
2022/04/19 02:56:19;;;;;;;14.37;9.37;;;;;;;3.79;84.42;99749.63;1652025;84;21258;-69
2022/04/19 02:58:45;;;;;;;16.07;8.03;;;;;;;3.77;84.35;99748.92;1662954;84;21463;-68
2022/04/19 03:01:15;;;;;;;16.50;8.93;;;;;;;3.76;84.17;99742.02;1665277;84;20961;-69
2022/04/19 03:03:43;;;;;;;19.47;9.07;;;;;;;3.71;84.09;99742.48;1649266;84;21648;-68
2022/04/19 03:06:11;;;;;;;27.40;10.77;;;;;;;3.30;83.98;99670.67;1663862;84;21064;-68
2022/04/19 03:08:40;;;;;;;17.63;10.00;;;;;;;3.70;84.13;99733.75;1668232;84;21564;-69
2022/04/19 03:11:07;;;;;;;14.53;8.63;;;;;;;3.73;84.05;99737.90;1668420;84;21547;-69
2022/04/19 03:13:36;;;;;;;20.70;10.47;;;;;;;3.73;83.89;99743.17;1661898;84;21135;-71
2022/04/19 03:16:04;;;;;;;15.20;9.10;;;;;;;3.72;83.75;99744.64;1655825;84;21047;-69
2022/04/19 03:18:31;;;;;;;21.47;8.77;;;;;;;3.70;83.96;99742.98;1644853;84;21586;-69
2022/04/19 03:20:59;;;;;;;20.83;10.27;;;;;;;3.72;84.05;99743.33;1648992;84;21004;-69
2022/04/19 03:29:00;;;;;;;19.27;11.00;;;;;;;3.70;84.27;99745.61;1648315;84;21092;-68
2022/04/19 03:31:27;;;;;;;21.45;10.45;;;;;;;3.72;84.59;99753.87;1664213;84;21024;-67
2022/04/19 03:33:54;;;;;;;21.30;10.67;;;;;;;3.72;84.49;99750.73;1660094;84;21064;-69
2022/04/19 03:36:21;;;;;;;20.63;9.87;;;;;;;3.75;84.41;99756.17;1644954;85;21394;-69
2022/04/19 03:38:50;;;;;;;22.77;10.00;;;;;;;3.77;84.29;99755.05;1643189;87;21034;-68
2022/04/19 03:41:16;;;;;;;21.33;9.83;;;;;;;3.78;84.07;99751.41;1635698;85;21028;-68
2022/04/19 03:43:44;;;;;;;18.20;9.07;;;;;;;3.81;84.09;99750.28;1632348;85;21163;-68
2022/04/19 03:46:11;;;;;;;18.93;8.33;;;;;;;3.83;84.05;99749.63;1676068;84;20966;-69
2022/04/19 03:48:37;;;;;;;19.48;9.90;;;;;;;3.46;84.25;99687.53;1676454;84;21100;-68
2022/04/19 03:51:05;;;;;;;18.07;9.23;;;;;;;3.86;84.26;99751.93;1669325;84;21938;-67
2022/04/19 03:53:33;;;;;;;18.55;8.93;;;;;;;3.85;84.26;99752.93;1661957;84;21104;-68
2022/04/19 03:55:59;;;;;;;27.67;9.83;;;;;;;3.83;84.39;99755.72;1656130;84;21080;-68
2022/04/19 03:58:27;;;;;;;20.30;10.10;;;;;;;3.84;84.51;99761.34;1635838;86;21053;-68
2022/04/19 04:00:54;;;;;;;19.77;9.37;;;;;;;3.84;84.47;99749.95;1646911;85;21461;-69
2022/04/19 04:03:21;;;;;;;18.13;10.93;;;;;;;3.86;84.62;99747.97;1653422;85;21061;-68
2022/04/19 04:05:49;;;;;;;21.87;11.00;;;;;;;3.88;84.75;99746.00;1652166;85;21048;-69
2022/04/19 04:08:18;;;;;;;18.50;9.53;;;;;;;3.89;84.85;99738.44;1663098;85;21002;-69
2022/04/19 04:10:48;;;;;;;25.93;10.50;;;;;;;3.94;85.03;99733.98;1656577;85;21613;-68
2022/04/19 04:13:15;;;;;;;17.20;9.57;;;;;;;3.94;84.78;99730.03;1674525;84;21092;-69
2022/04/19 04:15:41;;;;;;;26.52;13.65;;;;;;;3.96;84.99;99726.77;1676260;84;21081;-69
2022/04/19 04:18:09;;;;;;;;;;;;;;;3.96;84.56;99718.36;1676818;84;21057;-69
2022/04/19 04:20:37;;;;;;;25.57;11.23;;;;;;;3.97;84.67;99723.13;1670558;84;20131;-70
2022/04/19 04:23:03;;;;;;;22.73;10.58;;;;;;;3.92;84.79;99726.27;1657978;84;21125;-69
2022/04/19 04:25:29;;;;;;;;;;;;;;;3.93;84.79;99718.67;1654679;85;21593;-69
2022/04/19 04:27:57;;;;;;;24.43;11.05;;;;;;;3.95;84.86;99718.52;1659009;85;20197;-67
2022/04/19 04:30:25;;;;;;;20.37;10.80;;;;;;;3.94;85.16;99711.11;1661374;85;21632;-69
2022/04/19 04:32:55;;;;;;;15.67;8.03;;;;;;;4.00;85.12;99711.77;1656967;85;21038;-69
2022/04/19 04:35:21;;;;;;;19.05;8.43;;;;;;;4.04;85.09;99717.05;1669072;84;22362;-70
2022/04/19 04:37:47;;;;;;;17.50;10.10;;;;;;;4.06;84.98;99717.72;1650574;84;21631;-68
2022/04/19 04:40:16;;;;;;;22.10;10.33;;;;;;;4.13;85.02;99716.59;1655912;84;21097;-69
2022/04/19 04:42:46;;;;;;;22.83;10.60;;;;;;;4.19;84.85;99709.84;1599470;88;21587;-69
2022/04/19 04:45:13;;;;;;;19.42;8.65;;;;;;;4.21;84.66;99702.59;1667585;84;21025;-69
2022/04/19 04:50:26;;;;;;;16.17;7.93;;;;;;;4.25;84.42;99703.91;1657643;84;21616;-69
2022/04/19 04:52:53;;;;;;;17.87;8.33;;;;;;;4.26;84.39;99705.57;1670930;84;21556;-68
2022/04/19 04:55:20;;;;;;;;;;;;;;;4.31;84.48;99708.52;1663946;84;21616;-69
2022/04/19 04:57:48;;;;;;;16.93;7.80;;;;;;;4.38;84.28;99700.29;1667446;84;20120;-67
2022/04/19 05:00:16;;;;;;;11.38;7.22;;;;;;;4.38;84.09;99695.52;1660957;84;21075;-68
2022/04/19 05:02:50;;;;;;;11.57;7.00;;;;;;;4.40;84.00;99700.95;1664196;84;21018;-67
2022/04/19 05:05:18;;;;;;;13.50;6.80;;;;;;;4.44;84.06;99707.55;1667821;85;21565;-68
2022/04/19 05:07:44;;;;;;;14.63;7.75;;;;;;;4.51;84.18;99708.23;1662258;84;21102;-68
2022/04/19 05:10:12;;;;;;;11.47;6.93;;;;;;;4.54;83.39;99713.16;1665472;84;21525;-67
2022/04/19 05:12:40;;;;;;;12.53;6.90;;;;;;;4.56;83.52;99706.75;1657816;84;21100;-67
2022/04/19 05:15:10;;;;;;;10.67;5.87;;;;;;;4.38;83.67;99664.67;1679700;84;21251;-69
2022/04/19 05:17:38;;;;;;;10.03;5.60;;;;;;;4.70;83.44;99700.47;1673962;84;21053;-68
2022/04/19 05:20:09;;;;;;;11.15;6.85;;;;;;;4.76;83.16;99706.41;1674365;84;21049;-68
2022/04/19 05:22:37;;;;;;;10.53;6.57;;;;;;;4.81;83.08;99706.23;1669340;84;21052;-68
2022/04/19 05:25:04;;;;;;;;;;;;;;;4.83;82.79;99698.97;1657925;85;21018;-69
2022/04/19 05:27:31;;;;;;;8.33;5.33;;;;;;;4.84;82.29;99696.67;1652658;85;20145;-69
2022/04/19 05:29:57;;;;;;;6.90;5.40;;;;;;;4.80;82.23;99701.95;1625123;85;21005;-68
2022/04/19 05:32:27;;;;;;;10.48;6.42;;;;;;;4.81;81.99;99702.27;1653872;85;21084;-69
2022/04/19 05:34:52;;;;;;;7.93;4.10;;;;;;;4.85;82.38;99706.22;1655386;85;21490;-68
2022/04/19 05:37:19;;;;;;;9.87;4.83;;;;;;;4.83;81.43;99708.20;1656686;85;21019;-69
2022/04/19 05:39:45;;;;;;;6.25;4.80;;;;;;;4.83;81.72;99707.39;1620989;87;21630;-68
2022/04/19 05:42:12;;;;;;;;;;;;;;;4.86;81.73;99713.17;1616445;87;21436;-69
2022/04/19 05:44:38;;;;;;;10.30;5.00;;;;;;;4.91;81.54;99711.34;1596121;87;20457;-68
2022/04/19 05:47:05;;;;;;;9.63;4.57;;;;;;;4.94;81.49;99711.52;1639118;86;21694;-68
2022/04/19 05:49:31;;;;;;;8.28;5.80;;;;;;;4.95;80.89;99711.83;1642302;86;21063;-69
2022/04/19 05:51:58;;;;;;;8.98;3.87;;;;;;;4.93;80.72;99717.77;1632691;86;21112;-69
2022/04/19 05:54:24;;;;;;;4.92;4.25;;;;;;;4.94;81.05;99725.54;1637068;85;21061;-69
2022/04/19 05:56:52;;;;;;;6.67;3.67;;;;;;;4.95;81.13;99731.12;1633882;86;21094;-68
2022/04/19 05:59:20;;;;;;;6.37;4.33;;;;;;;4.95;80.32;99734.28;1626791;86;21574;-68
2022/04/19 06:07:20;;;;;;;4.87;2.50;;;;;;;4.98;80.79;99736.59;1632284;86;21062;-70
2022/04/19 06:09:49;;;;;;;2.47;2.00;;;;;;;5.02;80.37;99735.27;1631592;87;21042;-68
2022/04/19 06:12:16;;;;;;;4.50;1.97;;;;;;;5.05;80.08;99738.91;1634221;86;21011;-68
2022/04/19 06:14:44;;;;;;;2.87;2.03;;;;;;;5.08;79.91;99734.59;1637502;86;21110;-69
2022/04/19 06:17:15;;;;;;;7.58;3.30;;;;;;;4.99;79.88;99711.34;1620589;86;21021;-70
2022/04/19 06:19:44;;;;;;;6.90;4.97;;;;;;;5.06;79.74;99732.11;1624840;86;21024;-74
2022/04/19 06:22:13;;;;;;;7.50;4.57;;;;;;;5.10;79.79;99737.88;1618478;86;21132;-69
2022/04/19 06:27:42;;;;;;;13.10;5.37;;;;;;;5.32;79.12;99738.19;1803984;77;23305;-69
2022/04/19 06:30:12;;;;;;;8.10;4.97;;;;;;;5.25;78.67;99736.23;1774170;78;21516;-69
2022/04/19 06:32:41;;;;;;;11.30;6.77;;;;;;;5.24;79.15;99729.79;1773348;78;21018;-70
2022/04/19 06:35:11;;;;;;;9.13;6.07;;;;;;;5.29;79.12;99725.30;1729071;80;21121;-69
2022/04/19 06:37:37;;;;;;;15.17;6.70;;;;;;;5.35;78.96;99725.94;1721196;81;20985;-69
2022/04/19 06:40:11;;;;;;;12.87;8.20;;;;;;;5.40;78.28;99730.23;1714064;81;21090;-69
2022/04/19 06:42:41;;;;;;;10.17;6.80;;;;;;;5.45;78.17;99721.30;1719515;81;21066;-70
2022/04/19 06:45:20;;;;;;;8.43;6.13;;;;;;;5.53;78.11;99724.41;1707329;81;21043;-70
2022/04/19 06:48:01;;;;;;;12.50;7.10;;;;;;;5.56;77.90;99714.33;1716477;81;21058;-69
2022/04/19 06:50:29;;;;;;;8.87;4.80;;;;;;;5.56;78.03;99707.72;1715680;81;21794;-67
2022/04/19 06:52:58;;;;;;;7.40;4.97;;;;;;;5.59;77.92;99706.03;1705922;81;21045;-69
2022/04/19 06:55:35;;;;;;;9.60;5.37;;;;;;;5.62;77.63;99712.82;1702405;81;21470;-71
2022/04/19 06:58:04;;;;;;;12.23;4.70;;;;;;;5.68;77.60;99717.41;1716182;81;21027;-67
2022/04/19 07:00:30;;;;;;;10.17;5.57;;;;;;;5.71;76.83;99703.86;1716876;81;21082;-69
2022/04/19 07:02:56;;;;;;;4.87;3.62;;;;;;;5.74;76.52;99697.39;1732673;81;21074;-73
2022/04/19 07:05:42;;;;;;;9.83;5.03;;;;;;;5.74;76.88;99694.75;1722200;81;21023;-70
2022/04/19 07:08:09;;;;;;;5.50;3.77;;;;;;;5.70;76.93;99698.23;1718137;81;21027;-78
2022/04/19 07:10:37;;;;;;;4.47;2.93;;;;;;;5.68;76.42;99689.65;1726354;81;21624;-69
2022/04/19 07:13:06;;;;;;;4.13;2.67;;;;;;;5.57;76.71;99692.16;1695120;83;21311;-70
2022/04/19 07:15:36;;;;;;;4.83;3.00;;;;;;;5.52;77.37;99690.56;1680420;83;21048;-72
2022/04/19 07:18:03;;;;;;;6.27;3.30;;;;;;;5.47;77.11;99699.48;1678401;83;22230;-69
2022/04/19 07:28:35;;;;;;;5.40;3.07;;;;;;;5.62;77.54;99699.09;1640501;85;21082;-70
2022/04/19 07:31:04;;;;;;;3.73;2.57;;;;;;;5.61;76.86;99708.52;1677792;83;21100;-67
2022/04/19 07:33:37;;;;;;;2.33;2.13;;;;;;;5.58;77.35;99703.08;1677134;83;21005;-70
2022/04/19 07:36:00;;;;;;;1.93;1.67;;;;;;;5.59;77.06;99710.50;1660473;84;21024;-71
2022/04/19 07:38:28;;;;;;;2.17;1.37;;;;;;;5.59;77.15;99710.00;1632121;86;21589;-70
2022/04/19 07:41:15;;;;;;;1.07;0.97;;;;;;;5.59;76.71;99713.97;1662101;85;21078;-68
2022/04/19 07:43:43;;;;;;;2.97;1.43;;;;;;;5.58;76.74;99724.23;1656059;84;21062;-71
2022/04/19 07:46:15;;;;;;;1.40;1.40;;;;;;;5.55;76.90;99723.75;1659486;85;21061;-68
2022/04/19 07:48:40;;;;;;;1.50;1.40;;;;;;;5.44;77.20;99726.25;1678120;83;21031;-69
2022/04/19 07:51:06;;;;;;;2.60;1.63;;;;;;;5.36;77.71;99724.96;1687748;83;21060;-70
2022/04/19 07:53:33;;;;;;;2.12;1.98;;;;;;;5.34;78.24;99736.20;1675032;83;21540;-70
2022/04/19 07:55:59;;;;;;;2.05;1.95;;;;;;;5.33;78.20;99722.17;1685745;83;21028;-70
2022/04/19 07:58:26;;;;;;;1.60;1.60;;;;;;;5.39;78.00;99724.13;1693143;83;21154;-69
2022/04/19 08:00:52;;;;;;;1.87;1.67;;;;;;;5.43;77.86;99714.86;1674329;83;21104;-71
2022/04/19 08:03:23;;;;;;;2.40;2.30;;;;;;;5.47;77.96;99715.34;1646153;85;21085;-70
2022/04/19 08:05:51;;;;;;;2.07;1.97;;;;;;;5.51;77.80;99711.87;1670523;84;21121;-70
2022/04/19 08:08:18;;;;;;;3.80;2.10;;;;;;;5.60;77.37;99714.31;1644681;85;21030;-71
2022/04/19 08:10:50;;;;;;;1.70;1.60;;;;;;;5.69;77.21;99712.94;1636888;85;21660;-71
2022/04/19 08:13:17;;;;;;;1.60;1.50;;;;;;;5.74;77.27;99713.26;1642213;84;21027;-70
2022/04/19 08:15:44;;;;;;;2.03;1.80;;;;;;;5.82;77.29;99710.56;1688830;82;21026;-71
2022/04/19 08:18:13;;;;;;;2.73;2.10;;;;;;;5.88;77.20;99696.67;1708449;82;21172;-69
2022/04/19 08:20:42;;;;;;;2.23;2.03;;;;;;;5.93;76.44;99710.69;1700453;82;21527;-71
2022/04/19 08:23:10;;;;;;;2.20;2.10;;;;;;;5.91;76.10;99704.74;1710677;82;21516;-70
2022/04/19 08:25:38;;;;;;;1.90;1.80;;;;;;;5.87;76.26;99699.48;1702530;82;21104;-71
2022/04/19 08:28:07;;;;;;;1.67;1.67;;;;;;;5.90;76.36;99696.00;1695486;82;21602;-69
2022/04/19 08:30:34;;;;;;;1.77;1.67;;;;;;;5.91;76.07;99695.48;1665220;85;21026;-72
2022/04/19 08:33:00;;;;;;;1.73;1.63;;;;;;;5.91;76.14;99697.63;1695173;82;22227;-69
2022/04/19 08:35:28;;;;;;;3.17;2.97;;;;;;;5.87;76.22;99688.39;1694699;82;21065;-70
2022/04/19 08:37:55;;;;;;;2.13;2.03;;;;;;;5.92;76.63;99697.15;1689786;82;21549;-70
2022/04/19 08:40:21;;;;;;;2.12;1.92;;;;;;;5.96;76.83;99686.06;1674079;82;21069;-69
2022/04/19 08:42:49;;;;;;;1.67;1.57;;;;;;;6.02;75.94;99685.86;1706440;82;21035;-71
2022/04/19 08:45:16;;;;;;;1.42;1.32;;;;;;;6.03;76.07;99676.95;1687963;83;21041;-70
2022/04/19 08:47:46;;;;;;;1.87;1.77;;;;;;;6.06;75.71;99669.14;1666074;84;21002;-71
2022/04/19 08:50:17;;;;;;;1.87;1.77;;;;;;;6.08;75.78;99677.22;1667749;84;21521;-70
2022/04/19 08:52:44;;;;;;;2.40;2.30;;;;;;;6.14;75.71;99674.38;1683813;84;21565;-72
2022/04/19 08:57:58;;;;;;;1.80;1.75;;;;;;;6.18;75.29;99681.80;1661386;84;21155;-70
2022/04/19 09:00:25;;;;;;;1.93;1.83;;;;;;;6.17;74.97;99676.17;1654670;84;21074;-70
2022/04/19 09:02:58;;;;;;;1.85;1.75;;;;;;;6.19;75.00;99678.65;1676378;84;21138;-70
2022/04/19 09:05:28;;;;;;;7.43;6.80;;;;;;;6.19;75.21;99679.46;1684095;84;22342;-71
2022/04/19 09:07:57;;;;;;;2.53;2.43;;;;;;;6.16;75.35;99676.34;1723679;82;21512;-69
2022/04/19 09:10:34;;;;;;;2.37;2.20;;;;;;;6.15;75.67;99686.11;1720771;82;21595;-69
2022/04/19 09:13:11;;;;;;;2.53;2.33;;;;;;;6.13;75.73;99687.30;1719373;82;21004;-71
2022/04/19 09:15:44;;;;;;;2.87;1.57;;;;;;;6.19;75.84;99693.20;1710598;82;21012;-71
2022/04/19 09:18:24;;;;;;;2.37;2.27;;;;;;;6.30;75.82;99691.47;1697035;82;21067;-70
2022/04/19 09:20:51;;;;;;;3.47;3.17;;;;;;;6.42;75.48;99695.84;1702375;82;21023;-71
2022/04/19 09:23:20;;;;;;;3.63;3.27;;;;;;;6.47;75.23;99695.33;1695074;83;21006;-70
2022/04/19 09:25:53;;;;;;;2.50;2.30;;;;;;;6.49;74.87;99690.68;1713705;83;21157;-70
2022/04/19 09:28:21;;;;;;;2.20;2.00;;;;;;;6.44;74.48;99696.48;1713642;83;21527;-70
2022/04/19 09:30:53;;;;;;;3.07;2.87;;;;;;;6.40;74.43;99693.40;1693638;83;21048;-72
2022/04/19 09:33:20;;;;;;;1.90;1.80;;;;;;;6.40;74.74;99701.81;1710325;83;22165;-70
2022/04/19 09:35:53;;;;;;;1.77;1.67;;;;;;;6.41;75.24;99698.19;1680763;83;21053;-71
2022/04/19 09:38:42;;;;;;;1.67;1.57;;;;;;;6.45;74.67;99686.74;1655423;85;21493;-71
2022/04/19 09:41:11;;;;;;;2.10;1.60;;;;;;;6.48;74.29;99695.64;1704078;83;21065;-71
2022/04/19 09:43:37;;;;;;;1.70;1.70;;;;;;;6.47;73.96;99689.52;1667143;85;21058;-71
2022/04/19 09:46:06;;;;;;;1.80;1.70;;;;;;;6.39;74.17;99689.09;1703090;83;21145;-69
2022/04/19 09:48:37;;;;;;;1.50;1.50;;;;;;;6.34;74.18;99698.05;1681114;83;21459;-70
2022/04/19 09:51:07;;;;;;;1.70;1.60;;;;;;;6.32;74.09;99692.12;1689774;83;21046;-69
2022/04/19 09:53:45;;;;;;;1.40;1.33;;;;;;;6.36;74.52;99682.81;1693320;83;21018;-70
2022/04/19 09:56:15;;;;;;;1.57;1.33;;;;;;;6.41;74.48;99686.27;1693028;83;21054;-71
2022/04/19 09:58:46;;;;;;;1.63;1.60;;;;;;;6.48;74.58;99682.40;1673801;84;21338;-70
2022/04/19 10:09:39;;;;;;;1.30;1.20;;;;;;;6.56;74.47;99703.53;1684401;83;21095;-71
2022/04/19 10:12:10;;;;;;;1.03;1.03;;;;;;;6.70;74.48;99693.47;1693190;83;21941;-70
2022/04/19 10:14:39;;;;;;;1.37;1.27;;;;;;;6.77;73.47;99698.38;1699189;83;20977;-70
2022/04/19 10:17:06;;;;;;;0.90;0.90;;;;;;;6.77;73.25;99698.38;1683863;83;21040;-71
2022/04/19 10:19:33;;;;;;;1.07;1.07;;;;;;;6.79;73.05;99696.37;1676276;83;21189;-72
2022/04/19 10:22:09;;;;;;;1.20;1.13;;;;;;;6.85;73.07;99685.56;1693144;83;21129;-71
2022/04/19 10:24:48;;;;;;;1.00;0.90;;;;;;;6.93;72.67;99693.45;1693274;83;21011;-70
2022/04/19 10:27:15;;;;;;;0.90;0.90;;;;;;;7.05;72.33;99695.14;1692497;83;21636;-71
2022/04/19 10:29:45;;;;;;;1.90;1.52;;;;;;;7.14;71.84;99707.31;1690402;83;21032;-71
2022/04/19 10:32:14;;;;;;;4.90;2.43;;;;;;;7.14;71.59;99700.69;1692596;83;21052;-71
2022/04/19 10:34:44;;;;;;;2.20;2.00;;;;;;;7.15;72.04;99709.45;1687724;84;21048;-70
2022/04/19 10:37:24;;;;;;;3.00;1.43;;;;;;;7.15;72.00;99715.57;1694943;84;21024;-70
2022/04/19 10:39:54;;;;;;;0.97;0.80;;;;;;;7.15;71.37;99714.24;1689215;84;21124;-68
2022/04/19 10:42:37;;;;;;;0.67;0.67;;;;;;;7.12;71.61;99716.42;1679000;84;22204;-69
2022/04/19 10:45:24;;;;;;;1.30;1.20;;;;;;;7.14;71.35;99719.72;1674071;84;21043;-70
2022/04/19 10:47:58;;;;;;;1.40;1.27;;;;;;;7.18;71.54;99730.30;1663930;86;21546;-71
2022/04/19 10:50:39;;;;;;;4.33;2.63;;;;;;;7.18;71.28;99717.87;1662157;86;21165;-72
2022/04/19 10:53:07;;;;;;;6.83;3.23;;;;;;;7.17;71.16;99718.05;1664182;86;21122;-70
2022/04/19 10:55:54;;;;;;;2.30;2.10;;;;;;;7.12;71.74;99709.80;1661301;85;21035;-71
2022/04/19 10:58:40;;;;;;;1.23;1.13;;;;;;;7.11;71.28;99697.06;1648255;86;21026;-69
2022/04/19 11:01:29;;;;;;;2.63;1.67;;;;;;;7.10;71.13;99703.39;1654110;86;21051;-69
2022/04/19 11:03:56;;;;;;;4.77;2.67;;;;;;;7.08;71.25;99715.97;1689773;84;21054;-71
2022/04/19 11:06:38;;;;;;;3.90;2.40;;;;;;;7.14;71.39;99709.96;1684615;85;21066;-72
2022/04/19 11:09:21;;;;;;;4.50;2.90;;;;;;;7.22;71.12;99709.05;1691827;85;21058;-69
2022/04/19 11:11:53;;;;;;;2.80;2.30;;;;;;;7.23;71.00;99713.84;1668600;85;21151;-71
2022/04/19 11:14:35;;;;;;;3.23;2.63;;;;;;;7.20;71.45;99707.09;1687677;85;21003;-72
2022/04/19 11:17:24;;;;;;;4.73;2.00;;;;;;;7.18;71.80;99712.56;1680605;85;21219;-69
2022/04/19 11:20:06;;;;;;;6.37;3.40;;;;;;;7.25;72.18;99700.72;1674590;85;21139;-70
2022/04/19 11:22:54;;;;;;;6.43;3.43;;;;;;;7.38;71.56;99704.06;1681695;84;21503;-71
2022/04/19 11:25:39;;;;;;;5.00;3.87;;;;;;;7.55;70.99;99694.09;1688604;85;21082;-69
2022/04/19 11:28:11;;;;;;;5.90;3.33;;;;;;;7.67;70.45;99697.12;1688975;85;21110;-71
2022/04/19 11:30:46;;;;;;;4.67;3.40;;;;;;;7.77;70.68;99697.64;1667534;85;21003;-71
2022/04/19 11:33:26;;;;;;;5.90;3.27;;;;;;;7.76;69.66;99692.00;1666248;84;21474;-71
2022/04/19 11:36:06;;;;;;;3.93;2.70;;;;;;;7.72;69.25;99693.38;1670759;85;21031;-73
2022/04/19 11:38:40;;;;;;;4.03;2.37;;;;;;;7.72;69.26;99670.84;1688467;84;21171;-70
2022/04/19 11:46:45;;;;;;;6.63;2.93;;;;;;;7.92;68.88;99677.20;1672907;85;21059;-71
2022/04/19 11:49:30;;;;;;;4.67;2.77;;;;;;;7.98;68.92;99688.37;1673052;85;21058;-70
2022/04/19 11:52:01;;;;;;;2.53;2.03;;;;;;;8.05;69.11;99685.81;1618190;88;21138;-70
2022/04/19 11:54:32;;;;;;;4.60;3.03;;;;;;;8.06;68.00;99692.78;1686374;84;21361;-70
2022/04/19 11:57:05;;;;;;;2.40;1.90;;;;;;;8.03;68.12;99681.20;1688452;84;21003;-72
2022/04/19 11:59:41;;;;;;;2.63;1.80;;;;;;;8.05;68.28;99679.69;1660956;85;22193;-72
2022/04/19 12:02:17;;;;;;;4.00;1.97;;;;;;;8.06;68.52;99677.34;1666547;83;21095;-72
2022/04/19 12:04:52;;;;;;;8.53;3.83;;;;;;;8.02;68.13;99667.59;1676299;83;21020;-70
2022/04/19 12:07:19;;;;;;;11.60;3.90;;;;;;;8.00;67.83;99672.27;1711362;83;21003;-70
2022/04/19 12:09:50;;;;;;;9.33;4.70;;;;;;;7.95;67.83;99668.88;1704653;83;21094;-71
2022/04/19 12:12:19;;;;;;;3.63;1.57;;;;;;;7.88;68.36;99669.30;1660955;84;21178;-70
2022/04/19 12:14:52;;;;;;;3.77;2.07;;;;;;;7.78;68.07;99677.56;1681153;84;21125;-71
2022/04/19 12:17:22;;;;;;;2.30;1.10;;;;;;;7.67;68.76;99677.22;1674139;84;21040;-71
2022/04/19 12:20:04;;;;;;;4.03;1.00;;;;;;;7.58;69.44;99681.80;1660813;84;21602;-71
2022/04/19 12:22:34;;;;;;;1.50;0.60;;;;;;;7.56;69.71;99687.28;1666424;84;22203;-70
2022/04/19 12:25:03;;;;;;;0.47;0.47;;;;;;;7.57;70.16;99682.79;1683727;84;21094;-71
2022/04/19 12:27:35;;;;;;;1.10;1.10;;;;;;;7.55;69.51;99682.16;1658099;85;21125;-73
2022/04/19 12:30:12;;;;;;;0.40;0.40;;;;;;;7.44;69.97;99683.47;1687193;83;21108;-71
2022/04/19 12:32:54;;;;;;;0.70;0.60;;;;;;;7.38;70.22;99677.06;1693734;84;21287;-69
2022/04/19 12:35:37;;;;;;;0.80;0.37;;;;;;;7.34;70.27;99681.58;1679214;83;21049;-71
2022/04/19 12:38:13;;;;;;;0.40;0.30;;;;;;;7.33;70.76;99679.95;1685008;83;21137;-70